createdAt,value
2018-05-05T00:01:15.170Z,7.87
2018-05-05T00:03:41.623Z,8.93
2018-05-05T00:06:08.083Z,8.07
2018-05-05T00:08:34.554Z,7.47
2018-05-05T00:11:01.003Z,8.40
2018-05-05T00:13:28.204Z,8.03
2018-05-05T00:15:54.670Z,7.50
2018-05-05T00:18:21.132Z,7.40
2018-05-05T00:20:48.374Z,8.17
2018-05-05T00:23:14.840Z,8.33
2018-05-05T00:25:41.339Z,9.87
2018-05-05T00:28:07.802Z,9.43
2018-05-05T00:30:34.996Z,9.93
2018-05-05T00:33:01.463Z,9.37
2018-05-05T00:35:27.935Z,10.73
2018-05-05T00:37:55.132Z,9.67
2018-05-05T00:40:21.624Z,8.33
2018-05-05T00:42:48.822Z,9.60
2018-05-05T00:45:15.334Z,9.30
2018-05-05T00:47:42.566Z,8.40
2018-05-05T00:50:09.104Z,8.63
2018-05-05T00:52:35.641Z,7.10
2018-05-05T00:55:02.200Z,7.33
2018-05-05T00:57:29.420Z,7.03
2018-05-05T00:59:55.907Z,6.50
2018-05-05T01:02:22.397Z,6.57
2018-05-05T01:04:48.850Z,5.80
2018-05-05T01:07:15.340Z,7.13
2018-05-05T01:09:41.832Z,6.20
2018-05-05T01:12:08.302Z,6.77
2018-05-05T01:14:34.802Z,5.50
2018-05-05T01:17:01.259Z,5.57
2018-05-05T01:19:28.465Z,5.90
2018-05-05T01:21:54.963Z,6.37
2018-05-05T01:24:22.154Z,5.60
2018-05-05T01:26:48.638Z,5.33
2018-05-05T01:29:15.156Z,6.70
2018-05-05T01:31:41.642Z,6.43
2018-05-05T01:34:08.118Z,6.80
2018-05-05T01:36:34.637Z,6.00
2018-05-05T01:39:01.166Z,6.63
2018-05-05T01:41:27.687Z,6.10
2018-05-05T01:43:54.908Z,6.20
2018-05-05T01:46:21.410Z,6.00
2018-05-05T01:48:47.933Z,5.17
2018-05-05T01:51:14.413Z,5.60
2018-05-05T01:53:40.860Z,5.43
2018-05-05T01:56:07.348Z,6.87
2018-05-05T01:58:33.837Z,5.70
2018-05-05T02:01:00.292Z,6.40
2018-05-05T02:03:26.842Z,6.53
2018-05-05T02:05:54.094Z,6.03
2018-05-05T02:08:21.326Z,6.17
2018-05-05T02:10:47.790Z,5.90
2018-05-05T02:13:14.997Z,5.47
2018-05-05T02:15:41.496Z,5.77
2018-05-05T02:18:08.682Z,5.30
2018-05-05T02:20:35.131Z,4.87
2018-05-05T02:23:01.641Z,4.73
2018-05-05T02:25:28.100Z,4.57
2018-05-05T02:27:54.581Z,5.00
2018-05-05T02:30:21.058Z,6.10
2018-05-05T02:32:47.521Z,5.60
2018-05-05T02:35:13.998Z,5.37
2018-05-05T02:37:40.476Z,4.87
2018-05-05T02:40:06.992Z,5.33
2018-05-05T02:42:34.235Z,5.50
2018-05-05T02:45:01.447Z,5.93
2018-05-05T02:47:27.929Z,6.07
2018-05-05T02:49:55.212Z,5.47
2018-05-05T02:52:21.725Z,5.67
2018-05-05T02:54:48.962Z,5.50
2018-05-05T02:57:15.425Z,5.70
2018-05-05T02:59:42.656Z,6.33
2018-05-05T03:02:09.125Z,5.47
2018-05-05T03:04:36.323Z,5.47
2018-05-05T03:07:02.798Z,6.20
2018-05-05T03:09:29.264Z,6.17
2018-05-05T03:11:55.736Z,6.50
2018-05-05T03:14:22.243Z,7.93
2018-05-05T03:16:48.703Z,6.27
2018-05-05T03:19:15.197Z,7.13
2018-05-05T03:21:42.404Z,7.67
2018-05-05T03:24:08.877Z,7.97
2018-05-05T03:26:35.400Z,6.50
2018-05-05T03:29:01.865Z,7.73
2018-05-05T03:31:28.355Z,8.50
2018-05-05T03:33:54.813Z,8.40
2018-05-05T03:36:21.268Z,7.50
2018-05-05T03:38:47.783Z,9.50
2018-05-05T03:41:15.143Z,7.73
2018-05-05T03:43:41.595Z,8.60
2018-05-05T03:46:08.073Z,8.33
2018-05-05T03:48:34.556Z,9.10
2018-05-05T03:51:01.038Z,9.73
2018-05-05T03:53:28.312Z,8.73
2018-05-05T03:55:54.794Z,8.10
2018-05-05T03:58:21.262Z,8.43
2018-05-05T04:00:59.960Z,8.13
2018-05-05T04:03:38.625Z,8.13
2018-05-05T04:06:05.864Z,10.33
2018-05-05T04:08:32.334Z,8.90
2018-05-05T04:10:58.767Z,7.53
2018-05-05T04:13:25.251Z,7.40
2018-05-05T04:15:51.775Z,7.87
2018-05-05T04:18:18.243Z,7.07
2018-05-05T04:20:44.728Z,7.43
2018-05-05T04:23:11.221Z,7.97
2018-05-05T04:25:37.736Z,8.63
2018-05-05T04:28:04.259Z,8.17
2018-05-05T04:30:30.704Z,9.17
2018-05-05T04:32:57.208Z,7.70
2018-05-05T04:35:24.408Z,7.77
2018-05-05T04:37:50.906Z,7.13
2018-05-05T04:40:17.370Z,7.73
2018-05-05T04:42:43.894Z,7.23
2018-05-05T04:45:10.396Z,8.10
2018-05-05T04:47:36.874Z,6.83
2018-05-05T04:50:03.449Z,7.47
2018-05-05T04:52:29.894Z,6.97
2018-05-05T04:54:56.429Z,7.23
2018-05-05T04:57:23.025Z,7.20
2018-05-05T04:59:49.626Z,7.80
2018-05-05T05:02:16.118Z,6.87
2018-05-05T05:04:42.615Z,7.80
2018-05-05T05:07:09.821Z,6.87
2018-05-05T05:09:36.315Z,6.00
2018-05-05T05:12:03.566Z,7.47
2018-05-05T05:14:30.770Z,6.90
2018-05-05T05:16:57.277Z,6.40
2018-05-05T05:19:24.469Z,6.67
2018-05-05T05:21:50.940Z,6.10
2018-05-05T05:24:17.392Z,6.77
2018-05-05T05:26:44.626Z,6.70
2018-05-05T05:29:11.090Z,7.53
2018-05-05T05:31:38.337Z,6.03
2018-05-05T05:34:05.570Z,6.60
2018-05-05T05:36:32.033Z,6.40
2018-05-05T05:38:59.290Z,6.37
2018-05-05T05:41:26.516Z,6.73
2018-05-05T05:43:53.051Z,6.43
2018-05-05T05:46:19.573Z,5.80
2018-05-05T05:48:46.056Z,7.10
2018-05-05T05:51:12.574Z,6.00
2018-05-05T05:53:39.044Z,5.87
2018-05-05T05:56:06.282Z,6.70
2018-05-05T05:58:32.732Z,6.87
2018-05-05T06:00:59.260Z,7.50
2018-05-05T06:03:25.743Z,6.70
2018-05-05T06:05:52.222Z,5.27
2018-05-05T06:08:18.712Z,5.17
2018-05-05T06:10:45.193Z,4.70
2018-05-05T06:13:11.662Z,6.50
2018-05-05T06:15:38.867Z,5.90
2018-05-05T06:18:05.423Z,5.87
2018-05-05T06:20:32.581Z,5.30
2018-05-05T06:22:59.134Z,5.80
2018-05-05T06:25:25.682Z,4.90
2018-05-05T06:27:52.155Z,6.07
2018-05-05T06:30:18.735Z,5.70
2018-05-05T06:32:45.195Z,5.30
2018-05-05T06:35:11.682Z,5.30
2018-05-05T06:37:38.166Z,6.10
2018-05-05T06:40:04.677Z,6.83
2018-05-05T06:42:31.154Z,5.80
2018-05-05T06:44:57.662Z,6.10
2018-05-05T06:47:24.120Z,7.63
2018-05-05T06:49:51.158Z,6.23
2018-05-05T06:52:18.403Z,6.10
2018-05-05T06:54:44.857Z,6.00
2018-05-05T06:57:11.350Z,6.40
2018-05-05T06:59:37.800Z,6.17
2018-05-05T07:02:04.269Z,6.50
2018-05-05T07:04:30.727Z,6.17
2018-05-05T07:06:58.068Z,6.00
2018-05-05T07:09:24.554Z,7.20
2018-05-05T07:11:51.101Z,7.50
2018-05-05T07:14:17.542Z,7.93
2018-05-05T07:16:44.021Z,7.87
2018-05-05T07:19:10.547Z,7.50
2018-05-05T07:21:37.069Z,7.80
2018-05-05T07:24:03.526Z,7.87
2018-05-05T07:26:30.036Z,8.00
2018-05-05T07:28:56.515Z,8.03
2018-05-05T07:31:23.031Z,5.63
2018-05-05T07:33:49.477Z,6.20
2018-05-05T07:36:15.968Z,6.40
2018-05-05T07:38:43.185Z,6.07
2018-05-05T07:41:09.770Z,6.47
2018-05-05T07:43:36.275Z,7.57
2018-05-05T07:46:02.795Z,6.90
2018-05-05T07:48:29.304Z,6.80
2018-05-05T07:50:55.781Z,7.50
2018-05-05T07:53:22.248Z,6.90
2018-05-05T07:55:49.512Z,7.43
2018-05-05T07:58:16.753Z,7.40
2018-05-05T08:00:43.215Z,8.10
2018-05-05T08:03:10.414Z,6.93
2018-05-05T08:05:36.913Z,6.20
2018-05-05T08:08:03.351Z,6.53
2018-05-05T08:10:29.872Z,7.53
2018-05-05T08:12:57.109Z,6.43
2018-05-05T08:15:23.677Z,6.87
2018-05-05T08:17:51.075Z,6.50
2018-05-05T08:20:17.546Z,6.90
2018-05-05T08:22:44.062Z,6.50
2018-05-05T08:25:10.525Z,6.63
2018-05-05T08:27:36.973Z,6.87
2018-05-05T08:30:04.254Z,6.47
2018-05-05T08:32:31.461Z,5.90
2018-05-05T08:34:57.955Z,6.33
2018-05-05T08:37:24.430Z,7.50
2018-05-05T08:39:50.885Z,6.60
2018-05-05T08:42:17.385Z,6.70
2018-05-05T08:44:43.852Z,5.80
2018-05-05T08:47:10.340Z,6.10
2018-05-05T08:49:36.885Z,6.33
2018-05-05T08:52:03.320Z,6.87
2018-05-05T08:54:29.829Z,6.77
2018-05-05T08:56:57.057Z,6.43
2018-05-05T08:59:24.256Z,6.73
2018-05-05T09:01:52.504Z,6.73
2018-05-05T09:04:19.897Z,7.40
2018-05-05T09:06:46.368Z,6.20
2018-05-05T09:09:12.836Z,7.10
2018-05-05T09:11:39.314Z,6.07
2018-05-05T09:14:06.546Z,6.60
2018-05-05T09:16:33.765Z,5.70
2018-05-05T09:19:01.119Z,6.97
2018-05-05T09:21:27.673Z,6.17
2018-05-05T09:23:54.172Z,6.27
2018-05-05T09:26:21.085Z,6.53
2018-05-05T09:28:47.637Z,7.30
2018-05-05T09:33:47.852Z,6.60
2018-05-05T09:36:14.532Z,7.47
2018-05-05T09:38:41.084Z,6.47
2018-05-05T09:41:07.531Z,6.40
2018-05-05T09:43:34.005Z,7.70
2018-05-05T09:46:00.539Z,6.43
2018-05-05T09:48:26.995Z,6.70
2018-05-05T09:50:53.480Z,7.40
2018-05-05T09:53:20.916Z,6.90
2018-05-05T09:55:48.911Z,6.57
2018-05-05T09:58:15.425Z,6.90
2018-05-05T10:00:43.609Z,7.27
2018-05-05T10:03:10.825Z,7.00
2018-05-05T10:05:37.280Z,6.77
2018-05-05T10:08:03.724Z,7.40
2018-05-05T10:10:30.171Z,7.47
2018-05-05T10:12:57.379Z,7.93
2018-05-05T10:15:23.840Z,7.80
2018-05-05T10:17:50.389Z,8.10
2018-05-05T10:20:16.849Z,8.13
2018-05-05T10:22:44.079Z,8.20
2018-05-05T10:25:10.711Z,7.50
2018-05-05T10:27:37.153Z,7.20
2018-05-05T10:30:03.701Z,7.50
2018-05-05T10:32:30.264Z,7.03
2018-05-05T10:34:57.461Z,7.07
2018-05-05T10:37:23.941Z,7.80
2018-05-05T10:39:50.461Z,6.90
2018-05-05T10:42:16.951Z,7.10
2018-05-05T10:44:43.553Z,7.60
2018-05-05T10:47:09.993Z,8.40
2018-05-05T10:49:36.449Z,7.70
2018-05-05T10:52:03.684Z,7.40
2018-05-05T10:54:30.164Z,7.63
2018-05-05T10:56:56.639Z,7.73
2018-05-05T10:59:23.084Z,7.87
2018-05-05T11:01:49.557Z,7.93
2018-05-05T11:04:16.809Z,8.17
2018-05-05T11:06:44.024Z,8.50
2018-05-05T11:09:10.505Z,8.40
2018-05-05T11:11:37.761Z,8.30
2018-05-05T11:14:04.981Z,7.20
2018-05-05T11:16:31.470Z,9.10
2018-05-05T11:18:58.664Z,7.80
2018-05-05T11:21:25.142Z,8.67
2018-05-05T11:23:52.410Z,8.40
2018-05-05T11:26:18.871Z,8.00
2018-05-05T11:28:45.319Z,9.07
2018-05-05T11:31:11.815Z,9.00
2018-05-05T11:33:39.033Z,8.80
2018-05-05T11:36:06.263Z,8.73
2018-05-05T11:38:32.745Z,8.57
2018-05-05T11:40:59.220Z,9.00
2018-05-05T11:43:25.730Z,8.50
2018-05-05T11:45:52.196Z,9.73
2018-05-05T11:48:19.374Z,12.10
2018-05-05T11:50:45.986Z,9.93
2018-05-05T11:53:13.065Z,8.07
2018-05-05T11:55:39.575Z,8.20
2018-05-05T11:58:06.844Z,8.90
2018-05-05T12:00:33.303Z,8.90
2018-05-05T12:02:59.816Z,8.47
2018-05-05T12:05:27.052Z,9.00
2018-05-05T12:07:54.240Z,8.97
2018-05-05T12:10:20.728Z,9.40
2018-05-05T12:12:47.236Z,9.13
2018-05-05T12:15:13.748Z,8.50
2018-05-05T12:17:40.217Z,9.30
2018-05-05T12:20:06.761Z,8.57
2018-05-05T12:22:33.205Z,8.53
2018-05-05T12:24:59.692Z,7.63
2018-05-05T12:27:26.916Z,8.33
2018-05-05T12:29:53.449Z,8.90
2018-05-05T12:32:19.923Z,7.90
2018-05-05T12:34:47.149Z,7.13
2018-05-05T12:37:13.625Z,8.07
2018-05-05T12:39:40.825Z,7.90
2018-05-05T12:42:07.294Z,8.60
2018-05-05T12:44:34.526Z,7.73
2018-05-05T12:47:01.036Z,7.80
2018-05-05T12:49:27.541Z,7.30
2018-05-05T12:51:54.715Z,7.70
2018-05-05T12:54:21.226Z,7.40
2018-05-05T12:56:48.450Z,7.53
2018-05-05T12:59:14.943Z,7.93
2018-05-05T13:01:41.440Z,8.50
2018-05-05T13:04:07.919Z,7.70
2018-05-05T13:06:34.396Z,8.60
2018-05-05T13:09:00.882Z,8.00
2018-05-05T13:11:28.085Z,8.30
2018-05-05T13:13:54.571Z,9.30
2018-05-05T13:16:21.776Z,10.17
2018-05-05T13:18:48.258Z,9.60
2018-05-05T13:21:14.893Z,7.97
2018-05-05T13:23:42.169Z,8.83
2018-05-05T13:26:09.373Z,9.27
2018-05-05T13:28:35.877Z,10.10
2018-05-05T13:31:02.479Z,9.87
2018-05-05T13:33:29.053Z,9.50
2018-05-05T13:35:56.272Z,9.30
2018-05-05T13:38:22.800Z,9.73
2018-05-05T13:40:49.296Z,9.23
2018-05-05T13:43:15.750Z,8.60
2018-05-05T13:45:42.324Z,8.97
2018-05-05T13:48:09.469Z,9.50
2018-05-05T13:50:36.008Z,8.73
2018-05-05T13:53:02.503Z,9.37
2018-05-05T13:55:29.078Z,8.80
2018-05-05T13:57:55.556Z,9.67
2018-05-05T14:00:22.138Z,9.00
2018-05-05T14:02:48.727Z,9.90
2018-05-05T14:05:15.188Z,9.70
2018-05-05T14:07:42.461Z,9.77
2018-05-05T14:10:08.931Z,8.30
2018-05-05T14:12:35.420Z,10.10
2018-05-05T14:15:02.755Z,9.50
2018-05-05T14:17:29.477Z,10.73
2018-05-05T14:19:55.963Z,10.57
2018-05-05T14:22:23.295Z,10.37
2018-05-05T14:24:49.798Z,9.77
2018-05-05T14:27:16.318Z,10.90
2018-05-05T14:29:42.884Z,8.90
2018-05-05T14:32:09.337Z,10.90
2018-05-05T14:34:35.835Z,9.87
2018-05-05T14:37:02.329Z,10.30
2018-05-05T14:39:28.837Z,11.43
2018-05-05T14:41:55.333Z,9.90
2018-05-05T14:44:22.554Z,10.67
2018-05-05T14:46:49.029Z,10.50
2018-05-05T14:49:16.362Z,10.60
2018-05-05T14:51:42.835Z,10.23
2018-05-05T14:54:09.330Z,12.80
2018-05-05T14:56:35.981Z,11.53
2018-05-05T14:59:02.791Z,9.97
2018-05-05T15:01:29.217Z,11.03
2018-05-05T15:03:55.659Z,11.30
2018-05-05T15:06:22.184Z,11.90
2018-05-05T15:08:48.666Z,10.77
2018-05-05T15:11:15.145Z,11.10
2018-05-05T15:13:41.648Z,11.20
2018-05-05T15:16:08.118Z,10.53
2018-05-05T15:18:35.448Z,11.00
2018-05-05T15:21:01.965Z,11.10
2018-05-05T15:23:28.447Z,11.03
2018-05-05T15:25:55.792Z,11.40
2018-05-05T15:28:22.305Z,10.40
2018-05-05T15:30:48.850Z,11.40
2018-05-05T15:33:15.329Z,10.83
2018-05-05T15:35:42.511Z,10.20
2018-05-05T15:38:08.962Z,11.63
2018-05-05T15:40:35.423Z,11.07
2018-05-05T15:43:01.885Z,10.73
2018-05-05T15:45:29.085Z,10.93
2018-05-05T15:47:55.558Z,11.67
2018-05-05T15:50:22.048Z,11.60
2018-05-05T15:52:48.635Z,10.67
2018-05-05T15:55:15.168Z,11.23
2018-05-05T15:57:41.664Z,11.37
2018-05-05T16:00:08.166Z,12.10
2018-05-05T16:02:35.416Z,12.20
2018-05-05T16:05:01.888Z,10.97
2018-05-05T16:07:28.412Z,12.13
2018-05-05T16:09:55.608Z,12.97
2018-05-05T16:12:22.115Z,12.70
2018-05-05T16:14:49.377Z,12.63
2018-05-05T16:17:15.844Z,13.13
2018-05-05T16:19:42.412Z,12.40
2018-05-05T16:22:08.860Z,13.33
2018-05-05T16:24:35.325Z,12.40
2018-05-05T16:27:02.640Z,12.33
2018-05-05T16:29:29.109Z,12.77
2018-05-05T16:31:56.361Z,12.97
2018-05-05T16:34:23.591Z,12.70
2018-05-05T16:36:50.102Z,12.87
2018-05-05T16:39:16.591Z,13.70
2018-05-05T16:41:43.882Z,13.17
2018-05-05T16:44:10.345Z,12.77
2018-05-05T16:46:36.920Z,12.30
2018-05-05T16:49:03.376Z,12.20
2018-05-05T16:51:30.622Z,13.10
2018-05-05T16:53:57.930Z,12.87
2018-05-05T16:56:24.446Z,12.10
2018-05-05T16:58:50.948Z,14.37
2018-05-05T17:01:17.489Z,12.47
2018-05-05T17:03:43.945Z,13.37
2018-05-05T17:06:11.163Z,13.40
2018-05-05T17:08:37.601Z,13.30
2018-05-05T17:11:04.827Z,13.80
2018-05-05T17:13:31.405Z,14.57
2018-05-05T17:15:57.869Z,12.87
2018-05-05T17:18:25.079Z,13.20
2018-05-05T17:20:51.555Z,13.50
2018-05-05T17:23:18.766Z,14.37
2018-05-05T17:25:45.274Z,14.27
2018-05-05T17:28:11.801Z,15.00
2018-05-05T17:30:39.037Z,15.20
2018-05-05T17:33:05.512Z,14.60
2018-05-05T17:35:31.989Z,14.97
2018-05-05T17:37:58.498Z,18.73
2018-05-05T17:40:24.991Z,17.30
2018-05-05T17:42:51.552Z,19.03
2018-05-05T17:45:18.854Z,19.20
2018-05-05T17:47:45.334Z,19.03
2018-05-05T17:50:14.543Z,19.03
2018-05-05T17:52:41.728Z,19.17
2018-05-05T17:55:08.223Z,20.60
2018-05-05T17:57:34.723Z,19.27
2018-05-05T18:00:01.260Z,21.03
2018-05-05T18:02:27.764Z,22.13
2018-05-05T18:04:54.983Z,21.00
2018-05-05T18:07:21.470Z,21.63
2018-05-05T18:09:47.981Z,21.80
2018-05-05T18:12:14.442Z,22.00
2018-05-05T18:14:40.932Z,20.50
2018-05-05T18:17:07.430Z,20.30
2018-05-05T18:19:33.934Z,21.50
2018-05-05T18:22:00.426Z,21.60
2018-05-05T18:24:26.900Z,22.67
2018-05-05T18:26:53.376Z,21.87
2018-05-05T18:29:19.915Z,22.50
2018-05-05T18:31:46.361Z,22.30
2018-05-05T18:34:13.020Z,21.53
2018-05-05T18:36:39.727Z,23.80
2018-05-05T18:39:06.976Z,21.40
2018-05-05T18:41:34.274Z,21.30
2018-05-05T18:44:00.762Z,20.80
2018-05-05T18:46:28.150Z,21.20
2018-05-05T18:48:54.616Z,21.93
2018-05-05T18:51:21.124Z,24.20
2018-05-05T18:53:47.690Z,27.70
2018-05-05T18:56:14.150Z,24.30
2018-05-05T18:58:40.625Z,25.70
2018-05-05T19:01:07.929Z,23.03
2018-05-05T19:03:34.426Z,23.60
2018-05-05T19:06:01.711Z,25.33
2018-05-05T19:08:28.230Z,24.70
2018-05-05T19:10:54.682Z,24.23
2018-05-05T19:13:21.153Z,25.30
2018-05-05T19:15:47.665Z,25.37
2018-05-05T19:18:14.501Z,24.87
2018-05-05T19:20:41.010Z,25.80
2018-05-05T19:23:08.261Z,25.87
2018-05-05T19:25:35.548Z,26.37
2018-05-05T19:28:02.085Z,27.07
2018-05-05T19:30:28.562Z,25.53
2018-05-05T19:32:55.072Z,25.43
2018-05-05T19:35:21.704Z,26.73
2018-05-05T19:37:48.185Z,27.10
2018-05-05T19:40:14.697Z,26.80
2018-05-05T19:42:41.154Z,25.87
2018-05-05T19:45:07.626Z,26.07
2018-05-05T19:47:34.753Z,26.40
2018-05-05T19:50:01.218Z,25.37
2018-05-05T19:52:28.434Z,25.90
2018-05-05T19:54:54.947Z,26.33
2018-05-05T19:57:21.455Z,26.53
2018-05-05T19:59:48.649Z,27.90
2018-05-05T20:02:15.183Z,24.57
2018-05-05T20:04:41.755Z,25.10
2018-05-05T20:07:08.279Z,26.90
2018-05-05T20:09:34.745Z,28.07
2018-05-05T20:12:01.343Z,29.07
2018-05-05T20:14:27.808Z,27.00
2018-05-05T20:16:54.328Z,29.43
2018-05-05T20:19:20.808Z,27.83
2018-05-05T20:21:47.298Z,28.50
2018-05-05T20:24:13.807Z,27.90
2018-05-05T20:26:41.041Z,28.50
2018-05-05T20:29:07.558Z,28.33
2018-05-05T20:31:34.068Z,27.47
2018-05-05T20:34:00.528Z,29.30
2018-05-05T20:36:27.018Z,28.87
2018-05-05T20:38:54.249Z,28.83
2018-05-05T20:41:20.734Z,25.20
2018-05-05T20:43:47.234Z,27.17
2018-05-05T20:46:13.788Z,27.97
2018-05-05T20:48:41.010Z,27.23
2018-05-05T20:51:07.490Z,28.50
2018-05-05T20:53:34.750Z,28.33
2018-05-05T20:56:01.978Z,26.90
2018-05-05T20:58:28.464Z,27.07
2018-05-05T21:00:54.952Z,25.17
2018-05-05T21:03:21.388Z,26.13
2018-05-05T21:05:47.917Z,24.17
2018-05-05T21:08:14.364Z,22.77
2018-05-05T21:10:40.821Z,21.47
2018-05-05T21:13:08.041Z,20.33
2018-05-05T21:15:34.528Z,20.03
2018-05-05T21:18:01.736Z,19.10
2018-05-05T21:20:28.231Z,19.30
2018-05-05T21:22:54.720Z,18.33
2018-05-05T21:25:21.202Z,18.00
2018-05-05T21:27:47.787Z,17.23
2018-05-05T21:30:14.264Z,18.23
2018-05-05T21:32:41.496Z,15.20
2018-05-05T21:35:07.987Z,15.70
2018-05-05T21:37:34.509Z,14.87
2018-05-05T21:40:01.063Z,15.67
2018-05-05T21:42:27.542Z,14.20
2018-05-05T21:44:54.095Z,14.23
2018-05-05T21:47:20.571Z,13.30
2018-05-05T21:49:47.757Z,13.83
2018-05-05T21:52:14.248Z,14.23
2018-05-05T21:54:41.495Z,15.10
2018-05-05T21:57:07.999Z,15.07
2018-05-05T21:59:34.509Z,15.80
2018-05-05T22:02:01.156Z,17.50
2018-05-05T22:04:27.620Z,16.07
2018-05-05T22:06:54.190Z,15.50
2018-05-05T22:09:20.702Z,15.60
2018-05-05T22:11:47.172Z,15.70
2018-05-05T22:14:13.665Z,15.80
2018-05-05T22:16:40.137Z,17.87
2018-05-05T22:19:07.443Z,15.80
2018-05-05T22:21:33.920Z,16.97
2018-05-05T22:24:00.441Z,15.97
2018-05-05T22:26:26.961Z,15.03
2018-05-05T22:28:53.460Z,16.10
2018-05-05T22:31:20.073Z,17.17
2018-05-05T22:33:46.553Z,17.30
2018-05-05T22:36:13.798Z,17.70
2018-05-05T22:38:40.280Z,18.57
2018-05-05T22:41:06.748Z,18.73
2018-05-05T22:43:33.277Z,18.07
2018-05-05T22:45:59.910Z,17.33
2018-05-05T22:48:26.433Z,17.80
2018-05-05T22:50:52.918Z,18.83
2018-05-05T22:53:19.385Z,17.93
2018-05-05T22:55:46.678Z,18.37
2018-05-05T22:58:13.258Z,16.07
2018-05-05T23:00:39.770Z,16.17
2018-05-05T23:03:06.295Z,15.03
2018-05-05T23:05:32.769Z,15.57
2018-05-05T23:07:59.379Z,15.50
2018-05-05T23:10:25.863Z,17.93
2018-05-05T23:12:52.348Z,16.40
2018-05-05T23:15:18.857Z,15.33
2018-05-05T23:17:46.064Z,14.83
2018-05-05T23:20:12.569Z,15.10
2018-05-05T23:22:39.057Z,13.70
2018-05-05T23:25:08.116Z,13.90
2018-05-05T23:27:34.756Z,13.00
2018-05-05T23:30:01.174Z,11.83
2018-05-05T23:32:27.655Z,12.97
2018-05-05T23:34:54.159Z,15.73
2018-05-05T23:37:20.656Z,15.67
2018-05-05T23:39:47.167Z,14.80
2018-05-05T23:42:13.636Z,15.00
2018-05-05T23:44:40.177Z,14.67
2018-05-05T23:47:06.635Z,15.57
2018-05-05T23:49:33.849Z,14.87
2018-05-05T23:52:00.367Z,15.10
2018-05-05T23:54:26.872Z,16.70
2018-05-05T23:56:54.081Z,16.70
2018-05-05T23:59:20.632Z,17.50
